Time;durP1;ratioP1;P1;durP2;ratioP2;P2;SDS_P1;SDS_P2;PMS_P1;PMS_P2;Temp;Humidity;BMP_temperature;BMP_pressure;BME280_temperature;BME280_humidity;BME280_pressure;Samples;Min_cycle;Max_cycle;Signal;HPM_P1;HPM_P2
2022/10/31 00:01:18;;;;;;;17.85;6.87;;;11.40;99.90;;;;;;7349310;32;20124;-58
2022/10/31 00:05:20;;;;;;;15.05;7.05;;;11.30;99.90;;;;;;7352065;32;20599;-59
2022/10/31 00:09:22;;;;;;;13.30;6.97;;;11.40;99.90;;;;;;7348165;32;20198;-59
2022/10/31 00:13:23;;;;;;;16.92;6.55;;;11.40;99.90;;;;;;7350470;32;20095;-58
2022/10/31 00:17:25;;;;;;;18.30;7.00;;;11.40;99.90;;;;;;7345224;32;20463;-58
2022/10/31 00:21:28;;;;;;;16.00;6.45;;;11.50;99.90;;;;;;7345422;32;20118;-59
2022/10/31 00:25:35;;;;;;;12.00;6.45;;;11.50;99.90;;;;;;7343017;32;20100;-58
2022/10/31 00:29:36;;;;;;;13.93;6.25;;;11.60;99.90;;;;;;7353225;32;20118;-58
2022/10/31 00:33:39;;;;;;;17.12;6.20;;;11.60;99.90;;;;;;7350318;32;20441;-58
2022/10/31 00:37:41;;;;;;;11.07;6.40;;;11.70;99.90;;;;;;7355891;32;20142;-58
2022/10/31 00:41:42;;;;;;;17.00;6.60;;;11.70;99.90;;;;;;7355961;32;20206;-59
2022/10/31 00:45:44;;;;;;;17.12;6.62;;;11.80;99.90;;;;;;7350027;32;21134;-59
2022/10/31 00:49:46;;;;;;;14.82;6.68;;;11.80;99.90;;;;;;7352629;32;20099;-59
2022/10/31 00:53:47;;;;;;;20.00;6.72;;;11.80;99.90;;;;;;7351309;32;20495;-59
2022/10/31 00:57:49;;;;;;;10.05;6.30;;;11.80;99.90;;;;;;7345752;32;20226;-58
2022/10/31 01:01:51;;;;;;;16.70;7.22;;;11.80;99.90;;;;;;7355692;32;20118;-58
2022/10/31 01:06:11;;;;;;;11.98;6.70;;;11.90;99.90;;;;;;7356808;32;20111;-59
2022/10/31 01:10:13;;;;;;;18.55;7.00;;;11.90;99.90;;;;;;7358251;32;20107;-59
2022/10/31 01:14:15;;;;;;;15.60;6.80;;;11.90;99.90;;;;;;7357771;32;20134;-59
2022/10/31 01:18:16;;;;;;;14.40;6.80;;;12.00;99.90;;;;;;7357552;32;20099;-58
2022/10/31 01:22:18;;;;;;;15.20;7.30;;;12.00;99.90;;;;;;7351890;32;20534;-58
2022/10/31 01:26:23;;;;;;;18.23;7.35;;;12.00;99.90;;;;;;7353807;32;20107;-58
2022/10/31 01:30:24;;;;;;;15.07;7.10;;;11.90;99.90;;;;;;7350965;32;20217;-58
2022/10/31 01:34:26;;;;;;;14.10;7.30;;;11.90;99.90;;;;;;7353612;32;20104;-59
2022/10/31 01:38:27;;;;;;;16.20;7.50;;;11.80;99.90;;;;;;7354576;32;20149;-58
2022/10/31 01:42:29;;;;;;;12.60;5.82;;;11.80;99.90;;;;;;7353592;32;20190;-60
2022/10/31 01:46:36;;;;;;;14.00;6.60;;;11.80;99.90;;;;;;7355246;32;20198;-59
2022/10/31 01:50:38;;;;;;;14.35;7.35;;;11.80;99.90;;;;;;7354752;32;20103;-59
2022/10/31 01:54:45;;;;;;;16.55;6.82;;;11.80;99.90;;;;;;7353919;32;20130;-58
2022/10/31 01:58:47;;;;;;;15.50;7.20;;;11.70;99.90;;;;;;7352401;32;20103;-59
2022/10/31 02:02:49;;;;;;;16.27;6.97;;;11.70;99.90;;;;;;7354583;32;20219;-58
2022/10/31 02:06:58;;;;;;;10.25;6.30;;;11.50;99.90;;;;;;7352762;32;20336;-58
2022/10/31 02:11:01;;;;;;;12.75;6.65;;;11.40;99.90;;;;;;7352713;32;20103;-58
2022/10/31 02:15:04;;;;;;;13.40;6.70;;;11.30;99.90;;;;;;7354387;32;20122;-59
2022/10/31 02:19:08;;;;;;;15.70;7.12;;;11.20;99.90;;;;;;7355248;32;20099;-59
2022/10/31 02:23:19;;;;;;;21.37;7.18;;;11.20;99.90;;;;;;7355586;32;20597;-58
2022/10/31 02:27:39;;;;;;;13.82;6.65;;;11.10;99.90;;;;;;7353338;32;20099;-60
2022/10/31 02:32:03;;;;;;;17.58;7.50;;;11.10;99.90;;;;;;7350250;32;20156;-58
2022/10/31 02:36:27;;;;;;;17.00;6.90;;;10.90;99.90;;;;;;7353871;32;20213;-58
2022/10/31 02:40:37;;;;;;;16.23;6.35;;;10.90;99.90;;;;;;7344602;32;20296;-58
2022/10/31 02:44:48;;;;;;;17.83;7.12;;;10.80;99.90;;;;;;7346094;32;20257;-59
2022/10/31 02:48:57;;;;;;;12.05;6.60;;;10.90;99.90;;;;;;7355018;32;20210;-58
2022/10/31 02:52:59;;;;;;;15.25;6.90;;;11.00;99.90;;;;;;7356163;32;20377;-58
2022/10/31 02:57:07;;;;;;;15.80;6.90;;;11.00;99.90;;;;;;7353562;32;20137;-58
2022/10/31 03:01:22;;;;;;;18.23;6.75;;;11.10;99.90;;;;;;7350721;32;20111;-59
2022/10/31 03:05:30;;;;;;;14.82;7.50;;;11.20;99.90;;;;;;7351430;32;20287;-59
2022/10/31 03:09:34;;;;;;;18.83;7.47;;;11.20;99.90;;;;;;7352952;32;20437;-59
2022/10/31 03:13:42;;;;;;;14.10;7.60;;;11.30;99.90;;;;;;7355608;32;20099;-58
2022/10/31 03:18:04;;;;;;;16.75;8.05;;;11.30;99.90;;;;;;7348427;32;20796;-59
2022/10/31 03:22:25;;;;;;;16.08;7.65;;;11.30;99.90;;;;;;7354074;32;20103;-59
2022/10/31 03:26:28;;;;;;;19.40;8.48;;;11.30;99.90;;;;;;7355605;32;20103;-59
2022/10/31 03:30:35;;;;;;;13.98;8.05;;;11.20;99.90;;;;;;7350328;32;20182;-58
2022/10/31 03:34:39;;;;;;;15.40;7.50;;;11.20;99.90;;;;;;7353061;32;20103;-58
2022/10/31 03:38:43;;;;;;;19.80;7.60;;;11.10;99.90;;;;;;7352183;32;20125;-59
2022/10/31 03:42:52;;;;;;;14.35;7.40;;;11.00;99.90;;;;;;7352448;32;20546;-58
2022/10/31 03:46:54;;;;;;;14.75;8.02;;;10.90;99.90;;;;;;7353866;32;20261;-58
2022/10/31 03:51:12;;;;;;;14.70;7.70;;;10.80;99.90;;;;;;7354406;32;20111;-58
2022/10/31 03:55:23;;;;;;;17.00;8.82;;;10.80;99.90;;;;;;7352041;32;20111;-58
2022/10/31 03:59:39;;;;;;;14.13;7.65;;;10.70;99.90;;;;;;7340837;32;20613;-58
2022/10/31 04:03:42;;;;;;;15.27;7.65;;;10.60;99.90;;;;;;7353329;32;20130;-59
2022/10/31 04:07:47;;;;;;;15.73;8.05;;;10.50;99.90;;;;;;7358510;32;20130;-58
2022/10/31 04:11:52;;;;;;;17.15;8.13;;;10.50;99.90;;;;;;7357877;32;20257;-58
2022/10/31 04:15:55;;;;;;;15.85;7.78;;;10.50;99.90;;;;;;7349356;32;20126;-58
2022/10/31 04:20:00;;;;;;;17.35;8.23;;;10.30;99.90;;;;;;7357924;32;20103;-59
2022/10/31 04:24:02;;;;;;;16.45;8.30;;;10.30;99.90;;;;;;7359513;32;20633;-59
2022/10/31 04:28:03;;;;;;;16.02;7.62;;;10.30;99.90;;;;;;7359788;32;20144;-59
2022/10/31 04:32:05;;;;;;;15.95;8.98;;;10.20;99.90;;;;;;7356312;32;20156;-59
2022/10/31 04:36:07;;;;;;;16.45;8.43;;;10.20;99.90;;;;;;7358933;32;20091;-58
2022/10/31 04:40:10;;;;;;;15.15;7.18;;;10.20;99.90;;;;;;7352442;32;20190;-59
2022/10/31 04:44:11;;;;;;;14.50;7.30;;;10.20;99.90;;;;;;7358604;32;20471;-58
2022/10/31 04:48:13;;;;;;;15.50;9.20;;;10.20;99.90;;;;;;7355582;32;20130;-59
2022/10/31 04:52:15;;;;;;;17.25;8.85;;;10.20;99.90;;;;;;7349544;32;20504;-58
2022/10/31 04:56:16;;;;;;;18.15;8.63;;;10.20;99.90;;;;;;7352721;32;20146;-58
2022/10/31 05:00:20;;;;;;;21.83;8.65;;;10.20;99.90;;;;;;7356147;32;20122;-59
2022/10/31 05:04:22;;;;;;;19.52;8.93;;;10.20;99.90;;;;;;7354629;32;20125;-58
2022/10/31 05:08:23;;;;;;;17.05;9.38;;;10.20;99.90;;;;;;7356589;32;20182;-58
2022/10/31 05:12:25;;;;;;;18.67;9.43;;;10.10;99.90;;;;;;7346366;32;20123;-59
2022/10/31 05:16:28;;;;;;;15.27;8.55;;;10.10;99.90;;;;;;7354579;32;20099;-59
2022/10/31 05:20:30;;;;;;;19.00;8.70;;;10.00;99.90;;;;;;7356402;32;20189;-58
2022/10/31 05:24:32;;;;;;;18.30;8.80;;;10.00;99.90;;;;;;7348198;32;20107;-59
2022/10/31 05:28:33;;;;;;;18.90;9.32;;;10.10;99.90;;;;;;7349128;32;20221;-58
2022/10/31 05:32:43;;;;;;;22.48;9.85;;;10.00;99.90;;;;;;7353516;32;20538;-59
2022/10/31 05:36:45;;;;;;;16.75;9.57;;;10.10;99.90;;;;;;7357331;32;20130;-58
2022/10/31 05:40:46;;;;;;;14.25;9.02;;;10.10;99.90;;;;;;7353444;32;20452;-58
2022/10/31 05:44:48;;;;;;;17.60;8.23;;;10.10;99.90;;;;;;7352400;32;20717;-58
2022/10/31 05:48:50;;;;;;;17.30;9.38;;;10.10;99.90;;;;;;7353164;32;20190;-58
2022/10/31 05:53:00;;;;;;;18.98;8.20;;;10.10;99.90;;;;;;7354032;32;20222;-59
2022/10/31 05:57:02;;;;;;;15.00;7.82;;;10.10;99.90;;;;;;7354080;32;20125;-58
2022/10/31 06:01:04;;;;;;;16.17;8.55;;;10.00;99.90;;;;;;7357748;32;20104;-59
2022/10/31 06:05:06;;;;;;;22.42;11.82;;;10.00;99.90;;;;;;7355285;32;20107;-58
2022/10/31 06:09:07;;;;;;;19.83;9.63;;;10.00;99.90;;;;;;7355434;32;20210;-58
2022/10/31 06:13:09;;;;;;;21.30;10.32;;;10.00;99.90;;;;;;7359648;32;20571;-58
2022/10/31 06:17:11;;;;;;;18.37;10.13;;;10.00;99.90;;;;;;7353913;32;21170;-59
2022/10/31 06:21:12;;;;;;;21.60;10.50;;;10.00;99.90;;;;;;7353903;32;20119;-58
2022/10/31 06:25:19;;;;;;;71.07;41.53;;;10.00;99.90;;;;;;7351998;32;20119;-62
2022/10/31 06:29:21;;;;;;;26.20;13.82;;;10.00;99.90;;;;;;7351615;32;20106;-62
2022/10/31 06:33:22;;;;;;;19.50;10.60;;;10.00;99.90;;;;;;7351486;32;20103;-64
2022/10/31 06:37:24;;;;;;;19.52;10.30;;;9.90;99.90;;;;;;7354275;32;20153;-64
2022/10/31 06:41:26;;;;;;;17.70;9.30;;;10.00;99.90;;;;;;7340014;32;20206;-63
2022/10/31 06:45:28;;;;;;;23.77;10.57;;;10.00;99.90;;;;;;7344716;32;20195;-62
2022/10/31 06:49:29;;;;;;;20.25;10.80;;;10.00;99.90;;;;;;7349067;32;20190;-62
2022/10/31 06:53:31;;;;;;;32.15;19.52;;;10.00;99.90;;;;;;7341622;32;20092;-63
2022/10/31 06:57:33;;;;;;;19.12;10.82;;;10.00;99.90;;;;;;7348989;32;20096;-63
2022/10/31 07:01:34;;;;;;;20.83;10.25;;;10.10;99.90;;;;;;7351107;32;20130;-62
2022/10/31 07:05:37;;;;;;;21.08;10.23;;;10.10;99.90;;;;;;7344405;32;20142;-62
2022/10/31 07:09:38;;;;;;;21.77;10.45;;;10.10;99.90;;;;;;7345540;32;20116;-64
2022/10/31 07:13:40;;;;;;;16.75;10.27;;;10.10;99.90;;;;;;7350529;32;20194;-63
2022/10/31 07:17:42;;;;;;;20.00;10.38;;;10.20;99.90;;;;;;7345891;32;20597;-64
2022/10/31 07:21:44;;;;;;;27.00;11.00;;;10.30;99.90;;;;;;7344329;32;20741;-64
2022/10/31 07:25:45;;;;;;;26.05;11.27;;;10.40;99.90;;;;;;7350229;32;20122;-63
2022/10/31 07:29:47;;;;;;;25.77;13.18;;;10.50;99.90;;;;;;7346079;32;20099;-64
2022/10/31 07:33:49;;;;;;;26.48;14.25;;;10.50;99.90;;;;;;7344673;32;20159;-62
2022/10/31 07:37:51;;;;;;;18.65;10.07;;;10.60;99.90;;;;;;7351342;32;20233;-62
2022/10/31 07:41:53;;;;;;;17.15;9.77;;;10.60;99.90;;;;;;7350564;32;20114;-63
2022/10/31 07:45:55;;;;;;;21.50;10.07;;;10.70;99.90;;;;;;7358702;32;20516;-63
2022/10/31 07:49:56;;;;;;;22.00;10.82;;;10.70;99.90;;;;;;7356825;32;20104;-63
2022/10/31 07:53:58;;;;;;;22.98;11.60;;;10.80;99.90;;;;;;7348553;32;20718;-62
2022/10/31 07:58:08;;;;;;;18.17;11.02;;;10.90;99.90;;;;;;7351128;32;20186;-63
2022/10/31 08:02:10;;;;;;;17.37;10.40;;;11.00;99.90;;;;;;7339050;32;20272;-59
2022/10/31 08:06:11;;;;;;;24.55;11.20;;;11.10;99.90;;;;;;7349785;32;20232;-59
2022/10/31 08:10:13;;;;;;;23.02;12.88;;;11.20;99.90;;;;;;7344032;32;20140;-65
2022/10/31 08:14:15;;;;;;;26.98;13.10;;;11.30;99.90;;;;;;7344579;32;20116;-66
2022/10/31 08:18:16;;;;;;;25.12;13.18;;;11.50;99.90;;;;;;7350101;32;20108;-66
2022/10/31 08:22:18;;;;;;;20.17;12.00;;;11.60;99.90;;;;;;7351019;32;20221;-65
2022/10/31 08:26:20;;;;;;;24.48;12.77;;;11.90;99.90;;;;;;7343986;32;20606;-63
2022/10/31 08:30:25;;;;;;;25.50;13.20;;;12.10;99.90;;;;;;7345731;32;20115;-63
2022/10/31 08:34:27;;;;;;;27.27;14.02;;;12.30;99.90;;;;;;7351538;32;20126;-63
2022/10/31 08:38:28;;;;;;;36.35;23.25;;;12.50;99.90;;;;;;7346255;32;20112;-63
2022/10/31 08:42:30;;;;;;;59.05;37.03;;;12.70;99.90;;;;;;7349542;32;20801;-64
2022/10/31 08:46:32;;;;;;;32.40;18.75;;;12.90;99.90;;;;;;7360387;32;20127;-63
2022/10/31 08:50:35;;;;;;;22.00;13.45;;;13.10;99.90;;;;;;7357922;32;20225;-63
2022/10/31 08:54:37;;;;;;;28.10;14.63;;;13.30;99.90;;;;;;7359268;32;20104;-63
2022/10/31 08:58:38;;;;;;;19.35;11.93;;;13.50;99.90;;;;;;7349281;32;20104;-63
2022/10/31 09:02:41;;;;;;;27.62;15.73;;;13.60;99.90;;;;;;7355504;32;20543;-63
2022/10/31 09:06:42;;;;;;;25.85;14.75;;;13.80;99.90;;;;;;7350800;32;20726;-63
2022/10/31 09:11:06;;;;;;;28.10;14.65;;;13.90;99.90;;;;;;7362106;32;20115;-63
2022/10/31 09:15:08;;;;;;;26.30;14.40;;;14.10;99.90;;;;;;7347383;32;20126;-64
2022/10/31 09:19:10;;;;;;;33.35;15.77;;;14.20;99.90;;;;;;7349957;32;20681;-64
2022/10/31 09:23:19;;;;;;;21.77;14.30;;;14.40;99.90;;;;;;7353634;32;20111;-64
2022/10/31 09:27:20;;;;;;;28.42;14.27;;;14.70;99.90;;;;;;7350083;32;20216;-64
2022/10/31 09:31:22;;;;;;;28.65;15.10;;;14.90;99.90;;;;;;7349622;32;20103;-63
2022/10/31 09:35:24;;;;;;;26.30;15.60;;;15.00;99.90;;;;;;7351140;32;20501;-63
2022/10/31 09:39:26;;;;;;;28.45;16.00;;;15.10;99.90;;;;;;7344188;32;20107;-65
2022/10/31 09:43:46;;;;;;;24.42;14.65;;;15.20;99.90;;;;;;7354850;32;20209;-65
2022/10/31 09:48:09;;;;;;;28.42;14.85;;;15.40;99.90;;;;;;7353020;32;20091;-66
2022/10/31 09:52:24;;;;;;;29.37;15.07;;;15.60;99.90;;;;;;7350729;32;20104;-66
2022/10/31 09:56:27;;;;;;;33.45;18.48;;;15.90;99.90;;;;;;7354846;32;20184;-67
2022/10/31 10:00:31;;;;;;;34.35;18.85;;;16.00;99.90;;;;;;7344469;32;20114;-65
2022/10/31 10:04:44;;;;;;;32.88;19.00;;;16.00;99.90;;;;;;7345551;32;20194;-63
2022/10/31 10:08:46;;;;;;;33.67;16.87;;;16.00;99.90;;;;;;7346774;32;20112;-65
2022/10/31 10:13:21;;;;;;;28.23;17.58;;;16.20;99.90;;;;;;7355030;32;20131;-63
2022/10/31 10:17:51;;;;;;;30.02;16.42;;;16.20;99.90;;;;;;7355286;32;20781;-63
2022/10/31 10:22:36;;;;;;;34.85;18.10;;;16.00;99.90;;;;;;7352861;32;20151;-63
2022/10/31 10:27:05;;;;;;;27.70;17.27;;;16.00;99.90;;;;;;7348065;32;20107;-65
2022/10/31 10:31:32;;;;;;;33.22;17.48;;;16.10;99.90;;;;;;7351779;32;20561;-63
2022/10/31 10:35:36;;;;;;;23.62;14.45;;;16.30;99.90;;;;;;7353167;32;20198;-64
2022/10/31 10:39:40;;;;;;;27.83;14.10;;;16.50;99.90;;;;;;7350918;32;20108;-64
2022/10/31 10:43:42;;;;;;;23.52;13.02;;;16.70;99.90;;;;;;7346809;32;20103;-64
2022/10/31 10:47:51;;;;;;;27.62;14.15;;;16.80;99.90;;;;;;7354939;32;20739;-64
2022/10/31 10:52:04;;;;;;;27.92;13.10;;;16.90;99.90;;;;;;7352639;32;20099;-64
2022/10/31 10:56:41;;;;;;;29.45;14.60;;;17.00;99.90;;;;;;7352202;32;20096;-64
2022/10/31 11:00:49;;;;;;;29.23;14.38;;;17.00;99.90;;;;;;7353840;32;20126;-63
2022/10/31 11:04:54;;;;;;;31.67;13.90;;;17.10;99.90;;;;;;7353293;32;20223;-64
2022/10/31 11:08:55;;;;;;;24.60;12.73;;;17.10;99.90;;;;;;7354286;32;20127;-64
2022/10/31 11:13:05;;;;;;;22.35;12.52;;;17.30;99.90;;;;;;7356929;32;20100;-63
2022/10/31 11:17:15;;;;;;;25.77;11.20;;;17.40;99.90;;;;;;7352342;32;20671;-63
2022/10/31 11:21:25;;;;;;;28.05;12.23;;;17.60;99.90;;;;;;7353525;32;20103;-63
2022/10/31 11:25:27;;;;;;;23.85;10.90;;;17.90;99.90;;;;;;7343632;32;20438;-63
2022/10/31 11:29:28;;;;;;;17.30;9.43;;;18.10;99.90;;;;;;7349870;32;20146;-64
2022/10/31 11:34:00;;;;;;;16.40;7.87;;;18.20;99.90;;;;;;7350599;32;20216;-63
2022/10/31 11:38:05;;;;;;;16.20;8.07;;;18.40;99.90;;;;;;7355365;32;20119;-63
2022/10/31 11:42:07;;;;;;;14.85;6.82;;;18.60;99.90;;;;;;7349612;32;20222;-63
2022/10/31 11:46:14;;;;;;;15.63;6.68;;;18.60;99.90;;;;;;7355275;32;20099;-63
2022/10/31 11:50:25;;;;;;;14.15;5.90;;;18.80;99.90;;;;;;7352804;32;20107;-63
2022/10/31 11:54:32;;;;;;;15.07;6.45;;;19.00;99.90;;;;;;7351923;32;20760;-63
2022/10/31 11:58:33;;;;;;;15.00;6.97;;;19.10;99.90;;;;;;7353432;32;20194;-64
2022/10/31 12:02:35;;;;;;;15.90;6.97;;;19.00;99.90;;;;;;7349148;32;20806;-64
2022/10/31 12:06:40;;;;;;;12.48;5.97;;;19.00;99.90;;;;;;7348040;32;20234;-63
2022/10/31 12:11:06;;;;;;;11.88;5.40;;;19.00;99.90;;;;;;7349842;32;20676;-63
2022/10/31 12:15:14;;;;;;;15.68;5.07;;;19.00;99.90;;;;;;7343995;32;20100;-63
2022/10/31 12:19:48;;;;;;;16.62;5.10;;;19.00;99.90;;;;;;7352950;32;20103;-63
2022/10/31 12:24:21;;;;;;;11.40;4.75;;;19.00;99.90;;;;;;7350137;32;20225;-63
2022/10/31 12:29:03;;;;;;;19.48;6.78;;;19.00;99.90;;;;;;7347629;32;20100;-64
2022/10/31 12:33:21;;;;;;;15.43;5.80;;;19.00;99.90;;;;;;7358342;32;20116;-64
2022/10/31 12:37:41;;;;;;;13.57;4.72;;;19.00;99.90;;;;;;7349363;32;20129;-64
2022/10/31 12:41:46;;;;;;;15.15;4.43;;;19.10;99.90;;;;;;7354122;32;20103;-63
2022/10/31 12:45:59;;;;;;;11.40;4.15;;;19.20;99.90;;;;;;7354530;32;20134;-62
2022/10/31 12:50:22;;;;;;;13.62;4.60;;;19.30;99.90;;;;;;7353390;32;20198;-64
2022/10/31 12:54:31;;;;;;;14.93;3.67;;;19.30;99.90;;;;;;7353286;32;20490;-65
2022/10/31 12:58:37;;;;;;;10.30;4.60;;;19.30;99.90;;;;;;7355796;32;20134;-64
2022/10/31 13:02:48;;;;;;;15.85;4.07;;;19.40;99.90;;;;;;7359556;32;20214;-63
2022/10/31 13:07:07;;;;;;;12.25;3.60;;;19.30;99.90;;;;;;7352459;32;20201;-63
2022/10/31 13:11:22;;;;;;;11.00;4.03;;;19.40;99.90;;;;;;7352317;32;20108;-64
2022/10/31 13:15:27;;;;;;;11.85;4.03;;;19.30;99.90;;;;;;7356568;32;20102;-59
2022/10/31 13:19:37;;;;;;;14.35;4.37;;;19.40;99.90;;;;;;7356229;32;20229;-59
2022/10/31 13:23:39;;;;;;;12.93;3.83;;;19.50;99.90;;;;;;7351732;32;20507;-60
2022/10/31 13:27:59;;;;;;;;;;;19.50;99.90;;;;;;7354748;32;20129;-58
2022/10/31 13:32:05;;;;;;;10.25;3.92;;;19.30;99.90;;;;;;7352837;32;20708;-58
2022/10/31 13:36:21;;;;;;;14.00;3.58;;;19.20;99.90;;;;;;7362148;32;20520;-59
2022/10/31 13:40:28;;;;;;;8.73;3.50;;;19.10;99.90;;;;;;7357371;32;20104;-64
2022/10/31 13:44:37;;;;;;;12.68;3.87;;;19.30;99.90;;;;;;7354814;32;20391;-64
2022/10/31 13:48:42;;;;;;;11.05;4.37;;;19.40;99.90;;;;;;7352815;32;20175;-65
2022/10/31 13:52:43;;;;;;;13.30;4.28;;;19.30;99.90;;;;;;7354788;32;20194;-64
2022/10/31 13:56:49;;;;;;;9.27;4.05;;;19.30;99.90;;;;;;7353406;32;20137;-64
2022/10/31 14:01:10;;;;;;;7.55;3.28;;;19.40;99.90;;;;;;7343257;32;20237;-64
2022/10/31 14:05:28;;;;;;;15.13;3.90;;;19.50;99.90;;;;;;7351275;32;20202;-65
2022/10/31 14:09:41;;;;;;;10.27;3.28;;;19.50;99.90;;;;;;7349881;32;20497;-62
2022/10/31 14:13:45;;;;;;;13.07;3.58;;;19.50;99.90;;;;;;7353059;32;20452;-65
2022/10/31 14:17:57;;;;;;;9.93;3.60;;;19.20;99.90;;;;;;7349398;32;20842;-63
2022/10/31 14:21:59;;;;;;;8.68;3.53;;;19.20;99.90;;;;;;7349578;32;20126;-63
2022/10/31 14:26:28;;;;;;;10.35;3.83;;;19.10;99.90;;;;;;7348547;32;20121;-65
2022/10/31 14:30:30;;;;;;;10.60;3.47;;;19.00;99.90;;;;;;7356449;32;20582;-64
2022/10/31 14:34:53;;;;;;;10.25;3.80;;;19.00;99.90;;;;;;7349025;32;20198;-68
2022/10/31 14:39:04;;;;;;;16.60;5.12;;;19.00;99.90;;;;;;7351821;32;20132;-66
2022/10/31 14:43:38;;;;;;;11.80;5.28;;;18.90;99.90;;;;;;7350321;32;20664;-66
2022/10/31 14:47:56;;;;;;;15.52;6.30;;;18.80;99.90;;;;;;7345353;32;20132;-64
2022/10/31 14:51:58;;;;;;;15.40;5.07;;;18.70;99.90;;;;;;7348921;32;20111;-64
2022/10/31 14:56:01;;;;;;;13.77;4.60;;;18.70;99.90;;;;;;7346457;32;20126;-65
2022/10/31 15:00:08;;;;;;;;;;;18.50;99.90;;;;;;7356602;32;20122;-64
2022/10/31 15:04:23;;;;;;;15.35;5.05;;;18.50;99.90;;;;;;7360186;32;20002;-64
2022/10/31 15:08:39;;;;;;;17.10;5.37;;;18.30;99.90;;;;;;7353494;32;20516;-64
2022/10/31 15:12:41;;;;;;;11.80;3.83;;;18.20;99.90;;;;;;7358843;32;20713;-64
2022/10/31 15:16:43;;;;;;;9.65;4.10;;;18.20;99.90;;;;;;7358108;32;20202;-65
2022/10/31 15:20:46;;;;;;;11.35;4.85;;;18.10;99.90;;;;;;7350393;32;20256;-65
2022/10/31 15:24:49;;;;;;;16.92;6.10;;;18.00;99.90;;;;;;7346041;32;20182;-64
2022/10/31 15:29:15;;;;;;;13.73;5.40;;;18.00;99.90;;;;;;7356069;32;20129;-64
2022/10/31 15:33:26;;;;;;;11.93;4.53;;;17.80;99.90;;;;;;7351701;32;20099;-64
2022/10/31 15:37:28;;;;;;;13.65;4.05;;;17.70;99.90;;;;;;7354105;32;20099;-64
2022/10/31 15:41:33;;;;;;;12.35;3.42;;;17.70;99.90;;;;;;7358104;32;20121;-64
2022/10/31 15:45:35;;;;;;;10.10;3.20;;;17.50;99.90;;;;;;7355506;32;20127;-64
2022/10/31 15:49:41;;;;;;;12.15;3.35;;;17.50;99.90;;;;;;7350882;32;20107;-64
2022/10/31 15:53:49;;;;;;;9.00;2.83;;;17.50;99.90;;;;;;7346328;32;20765;-64
2022/10/31 15:57:58;;;;;;;13.07;3.72;;;17.50;99.90;;;;;;7353489;32;20107;-63
2022/10/31 16:02:02;;;;;;;10.35;3.03;;;17.30;99.90;;;;;;7347585;32;20103;-64
2022/10/31 16:06:05;;;;;;;12.98;3.40;;;17.30;99.90;;;;;;7352307;32;20119;-65
2022/10/31 16:10:23;;;;;;;10.85;3.15;;;17.20;99.90;;;;;;7349739;32;20174;-65
2022/10/31 16:14:32;;;;;;;15.60;3.87;;;17.20;99.90;;;;;;7357114;32;20122;-64
2022/10/31 16:18:37;;;;;;;11.05;2.97;;;17.20;99.90;;;;;;7350755;32;20107;-59
2022/10/31 16:22:39;;;;;;;11.30;3.10;;;17.20;99.90;;;;;;7346467;32;20104;-59
2022/10/31 16:26:41;;;;;;;10.05;3.30;;;17.20;99.90;;;;;;7345205;32;20205;-59
2022/10/31 16:30:45;;;;;;;11.98;3.30;;;17.20;99.90;;;;;;7349661;32;20749;-60
2022/10/31 16:35:17;;;;;;;9.13;2.95;;;17.10;99.90;;;;;;7359033;32;20095;-59
2022/10/31 16:39:19;;;;;;;9.18;3.03;;;17.10;99.90;;;;;;7340354;32;20459;-59
2022/10/31 16:43:22;;;;;;;10.30;2.90;;;17.10;99.90;;;;;;7341143;32;20128;-59
2022/10/31 16:47:24;;;;;;;9.75;2.92;;;17.00;99.90;;;;;;7345709;32;20240;-59
2022/10/31 16:51:29;;;;;;;8.80;3.03;;;17.10;99.90;;;;;;7354174;32;20443;-59
2022/10/31 16:55:34;;;;;;;11.73;3.00;;;17.00;99.90;;;;;;7354246;32;20130;-59
2022/10/31 16:59:36;;;;;;;8.68;3.28;;;17.00;99.90;;;;;;7355010;32;20096;-59
2022/10/31 17:03:38;;;;;;;8.85;2.65;;;17.00;99.90;;;;;;7348685;32;20195;-59
2022/10/31 17:07:40;;;;;;;12.05;3.00;;;17.10;99.90;;;;;;7360598;32;20130;-59
2022/10/31 17:11:46;;;;;;;11.25;3.28;;;17.00;99.90;;;;;;7358145;32;20096;-59
2022/10/31 17:15:59;;;;;;;11.82;2.85;;;17.10;99.90;;;;;;7355517;32;20117;-59
2022/10/31 17:20:00;;;;;;;9.63;2.80;;;17.20;99.90;;;;;;7362322;32;20734;-59
2022/10/31 17:24:02;;;;;;;8.88;2.87;;;17.20;99.90;;;;;;7363548;32;20183;-60
2022/10/31 17:28:04;;;;;;;8.38;2.97;;;17.20;99.90;;;;;;7356479;32;20171;-60
2022/10/31 17:32:06;;;;;;;9.75;3.78;;;17.20;99.90;;;;;;7362706;32;20476;-60
2022/10/31 17:36:07;;;;;;;9.77;2.80;;;17.20;99.90;;;;;;7362909;32;20103;-60
2022/10/31 17:40:11;;;;;;;9.57;3.17;;;17.30;99.90;;;;;;7363773;32;20122;-59
2022/10/31 17:44:12;;;;;;;6.68;2.62;;;17.30;99.90;;;;;;7353782;32;20587;-60
2022/10/31 17:48:14;;;;;;;5.35;2.53;;;17.40;99.90;;;;;;7358576;32;20199;-60
2022/10/31 17:52:16;;;;;;;11.05;2.83;;;17.40;99.90;;;;;;7363221;32;20137;-60
2022/10/31 17:56:17;;;;;;;11.48;3.10;;;17.20;99.90;;;;;;7363063;32;20125;-59
2022/10/31 18:00:21;;;;;;;7.68;2.75;;;17.30;99.90;;;;;;7353462;32;20107;-58
2022/10/31 18:04:23;;;;;;;9.38;2.97;;;17.20;99.90;;;;;;7356237;32;20251;-59
2022/10/31 18:08:30;;;;;;;8.15;2.50;;;17.20;99.90;;;;;;7360690;32;20189;-58
2022/10/31 18:12:34;;;;;;;11.75;3.05;;;17.20;99.90;;;;;;7359003;32;20145;-58
2022/10/31 18:16:36;;;;;;;12.55;2.53;;;17.10;99.90;;;;;;7348063;32;20206;-59
2022/10/31 18:20:39;;;;;;;7.18;2.70;;;17.00;99.90;;;;;;7353302;32;20125;-59
2022/10/31 18:24:41;;;;;;;11.85;4.37;;;16.80;99.90;;;;;;7359362;32;20765;-59
2022/10/31 18:28:42;;;;;;;20.15;7.50;;;16.70;99.90;;;;;;7360417;32;20607;-59
2022/10/31 18:32:47;;;;;;;20.40;10.45;;;16.50;99.90;;;;;;7353923;32;20574;-59
2022/10/31 18:36:49;;;;;;;24.58;11.77;;;16.30;99.90;;;;;;7354435;32;20208;-59
2022/10/31 18:40:51;;;;;;;15.18;6.68;;;16.20;99.90;;;;;;7360157;32;20100;-59
2022/10/31 18:44:53;;;;;;;10.10;3.70;;;16.10;99.90;;;;;;7362485;32;20204;-60
2022/10/31 18:48:54;;;;;;;12.27;4.40;;;16.20;99.90;;;;;;7357719;32;20104;-59
2022/10/31 18:52:56;;;;;;;21.87;13.25;;;16.20;99.90;;;;;;7354912;32;20142;-60
2022/10/31 18:56:57;;;;;;;16.27;8.52;;;16.10;99.90;;;;;;7357720;32;20121;-60
2022/10/31 19:01:04;;;;;;;27.33;11.63;;;16.00;99.90;;;;;;7361245;32;20103;-60
2022/10/31 19:05:06;;;;;;;21.40;11.37;;;16.00;99.90;;;;;;7359281;32;20107;-60
2022/10/31 19:09:08;;;;;;;12.25;4.80;;;16.00;99.90;;;;;;7354201;32;20103;-60
2022/10/31 19:13:10;;;;;;;13.77;4.53;;;16.00;99.90;;;;;;7360109;32;20193;-59
2022/10/31 19:17:11;;;;;;;18.70;7.87;;;15.90;99.90;;;;;;7355313;32;20121;-59
2022/10/31 19:21:16;;;;;;;11.75;5.95;;;15.90;99.90;;;;;;7360234;32;20204;-59
2022/10/31 19:25:18;;;;;;;13.50;6.93;;;15.80;99.90;;;;;;7353990;32;20099;-60
2022/10/31 19:29:19;;;;;;;10.20;4.53;;;15.60;99.90;;;;;;7359124;32;20533;-60
2022/10/31 19:33:21;;;;;;;15.02;7.05;;;15.50;99.90;;;;;;7356019;32;20122;-57
2022/10/31 19:37:23;;;;;;;11.05;4.80;;;15.50;99.90;;;;;;7358113;32;20635;-59
2022/10/31 19:41:26;;;;;;;20.45;9.02;;;15.50;99.90;;;;;;7350994;32;20122;-58
2022/10/31 19:45:28;;;;;;;13.18;6.05;;;15.60;99.90;;;;;;7353475;32;20138;-58
2022/10/31 19:49:29;;;;;;;11.93;4.30;;;15.70;99.90;;;;;;7353373;32;20164;-58
2022/10/31 19:53:32;;;;;;;16.20;8.50;;;15.80;99.90;;;;;;7357379;32;20099;-58
2022/10/31 19:57:35;;;;;;;16.33;6.95;;;15.90;99.90;;;;;;7350768;32;20250;-58
2022/10/31 20:01:57;;;;;;;16.02;7.80;;;15.90;99.90;;;;;;7354992;32;20410;-59
2022/10/31 20:06:02;;;;;;;10.00;3.62;;;15.90;99.90;;;;;;7348535;32;20155;-59
2022/10/31 20:10:04;;;;;;;9.43;2.75;;;15.90;99.90;;;;;;7357175;32;20236;-59
2022/10/31 20:14:07;;;;;;;6.25;2.33;;;15.90;99.90;;;;;;7352172;32;20088;-59
2022/10/31 20:18:09;;;;;;;7.43;3.17;;;16.00;99.90;;;;;;7353398;32;20095;-59
2022/10/31 20:22:11;;;;;;;8.73;2.75;;;16.10;99.90;;;;;;7354341;32;20103;-58
2022/10/31 20:26:15;;;;;;;7.07;3.45;;;16.10;99.90;;;;;;7358861;32;20092;-59
2022/10/31 20:30:17;;;;;;;5.85;2.95;;;16.10;99.90;;;;;;7349160;32;20597;-59
2022/10/31 20:34:19;;;;;;;9.55;3.15;;;16.20;99.90;;;;;;7359717;32;20129;-59
2022/10/31 20:38:20;;;;;;;10.07;3.00;;;16.10;99.90;;;;;;7359407;32;20116;-58
2022/10/31 20:42:22;;;;;;;13.82;3.05;;;16.30;99.90;;;;;;7361553;32;20103;-59
2022/10/31 20:46:25;;;;;;;8.60;2.53;;;16.40;99.90;;;;;;7357171;32;20194;-59
2022/10/31 20:50:27;;;;;;;9.95;2.92;;;16.40;99.90;;;;;;7356627;32;20209;-59
2022/10/31 20:54:29;;;;;;;7.65;3.17;;;16.40;99.90;;;;;;7360737;32;20118;-59
2022/10/31 20:58:31;;;;;;;6.90;3.10;;;16.30;99.90;;;;;;7359669;32;20129;-58
2022/10/31 21:02:33;;;;;;;10.80;3.72;;;16.30;99.90;;;;;;7355271;32;20099;-59